Latest Coastal Weather Observations for Lihou Reef Lighthouse

IDQ60701

Issued at 7:32 am EST Saturday 30 July 2016 (issued every 10 minutes, with the page automatically refreshed every 10 minutes)

About coastal observations | Map of coastal stations | Coastal observations for QLD | Marine services | Other Formats
Station Details ID: 200880 Name: LIHOU REEF LIGHTHOUSE Lat: -17.13 Lon: 152.15 Height: 0.0 m
Data from the previous 72 hours. | See also: Recent months at Lihou Reef Lighthouse
Date/Time
EST
Temp
°C
Wind Pressure Rain since
9am
mm
Weather Cloud Vis
km
Sea
Height
m
Swell
Dir  Spd
kts
Gust
kts
hPa Trend Height
m
Period
s
Dir
30/07:30am 24.4 SE 18 21 1014.5 - - - - - - - - -
30/07:00am 24.6 SE 19 22 1014.0 - - - - - - - - -
30/06:30am 24.8 SE 19 23 1013.7 - - - - - - - - -
30/06:00am 24.8 SSE 19 22 1013.4 - - - - - - - - -
30/05:30am 24.8 SSE 19 22 1013.3 - - - - - - - - -
30/05:00am 24.9 SSE 19 22 1013.0 - - - - - - - - -
30/04:30am 24.9 SSE 19 22 1012.8 - - - - - - - - -
30/04:00am 24.9 SSE 19 21 1012.8 - - - - - - - - -
30/03:30am 24.7 SSE 19 22 1012.7 - - - - - - - - -
30/03:00am 24.5 SSE 20 23 1012.9 - - - - - - - - -
30/02:30am 23.6 SSE 21 25 1013.2 - - - - - - - - -
30/02:00am 24.7 SSE 17 23 1013.3 - - - - - - - - -
30/01:30am 23.7 SE 17 20 1013.8 - - - - - - - - -
30/01:00am 24.9 SSE 17 20 1014.1 - - - - - - - - -
30/12:30am 24.6 SSE 20 23 1014.5 - - - - - - - - -
30/12:00am 24.9 SSE 17 21 1014.7 - - - - - - - - -
 
Date/Time
EST
Temp
°C
Wind Pressure Rain since
9am
mm
Weather Cloud Vis
km
Sea
Height
m
Swell
Dir  Spd
kts
Gust
kts
hPa Trend Height
m
Period
s
Dir
29/11:30pm 24.4 SSE 16 19 1014.8 - - - - - - - - -
29/11:00pm 24.7 SSE 20 23 1014.9 - - - - - - - - -
29/10:30pm 24.8 SSE 19 23 1015.2 - - - - - - - - -
29/10:00pm 24.8 SSE 19 22 1015.3 - - - - - - - - -
29/09:30pm 24.0 SSE 18 23 1015.2 - - - - - - - - -
29/09:00pm 23.5 SSE 18 24 1015.3 - - - - - - - - -
29/08:30pm 24.4 SSE 18 24 1015.4 - - - - - - - - -
29/08:00pm 25.1 SSE 18 22 1015.2 - - - - - - - - -
29/07:30pm 24.6 SSE 20 24 1014.9 - - - - - - - - -
29/07:00pm 25.1 SSE 17 20 1014.3 - - - - - - - - -
29/06:30pm 25.1 SSE 20 23 1014.0 - - - - - - - - -
29/06:00pm 25.3 SSE 18 22 1013.7 - - - - - - - - -
29/05:30pm 24.8 SSE 20 23 1013.3 - - - - - - - - -
29/05:00pm 25.1 SE 15 18 1013.4 - - - - - - - - -
29/04:30pm 25.1 SE 15 18 1013.2 - - - - - - - - -
29/04:00pm 25.1 SE 15 17 1013.2 - - - - - - - - -
29/03:30pm 25.1 SSE 16 19 1012.9 - - - - - - - - -
29/03:00pm 25.3 SE 15 18 1012.9 - - - - - - - - -
29/02:30pm 25.3 SE 17 20 1012.9 - - - - - - - - -
29/02:00pm 25.2 SSE 16 18 1013.0 - - - - - - - - -
29/01:30pm 25.3 SE 17 20 1013.2 - - - - - - - - -
29/01:00pm 25.4 SE 18 20 1013.5 - - - - - - - - -
29/12:30pm 25.3 SE 16 19 1013.9 - - - - - - - - -
29/12:00pm 25.3 SE 18 21 1014.4 - - - - - - - - -
29/11:30am 25.4 SE 17 20 1014.8 - - - - - - - - -
29/11:00am 25.2 SE 18 21 1015.2 - - - - - - - - -
29/10:30am 25.5 SE 18 21 1015.5 - - - - - - - - -
29/10:00am 25.5 SE 18 20 1015.7 - - - - - - - - -
29/09:30am 25.3 SE 18 21 1015.5 - - - - - - - - -
29/09:00am 25.2 SE 19 22 1015.4 - - - - - - - - -
29/08:30am 25.2 SE 19 22 1015.5 - - - - - - - - -
29/08:00am 25.1 SE 17 22 1015.5 - - - - - - - - -
29/07:30am 24.4 SSE 18 21 1015.3 - - - - - - - - -
29/07:00am 24.4 SE 18 23 1015.0 - - - - - - - - -
29/06:30am 24.6 SE 17 22 1014.8 - - - - - - - - -
29/06:00am 24.9 SE 19 22 1014.5 - - - - - - - - -
29/05:30am 24.8 SE 18 21 1014.4 - - - - - - - - -
29/05:00am 24.7 SE 18 22 1014.1 - - - - - - - - -
29/04:30am 24.3 ESE 18 21 1014.0 - - - - - - - - -
29/04:00am 24.9 SE 20 23 1014.0 - - - - - - - - -
29/03:30am 24.9 SE 18 21 1013.8 - - - - - - - - -
29/03:00am 24.9 SE 20 22 1013.9 - - - - - - - - -
29/02:30am 24.7 SE 19 23 1014.1 - - - - - - - - -
29/02:00am 24.5 SE 18 22 1014.3 - - - - - - - - -
29/01:30am 23.6 SE 21 25 1014.8 - - - - - - - - -
29/01:00am 24.6 SE 20 26 1014.8 - - - - - - - - -
29/12:30am 24.8 SE 19 23 1015.2 - - - - - - - - -
29/12:00am 24.9 SE 20 23 1015.3 - - - - - - - - -
 
Date/Time
EST
Temp
°C
Wind Pressure Rain since
9am
mm
Weather Cloud Vis
km
Sea
Height
m
Swell
Dir  Spd
kts
Gust
kts
hPa Trend Height
m
Period
s
Dir
28/11:30pm 24.8 SE 21 25 1015.4 - - - - - - - - -
28/11:00pm 24.8 SE 20 23 1015.8 - - - - - - - - -
28/10:30pm 24.8 SE 19 22 1016.1 - - - - - - - - -
28/10:00pm 24.9 SE 21 24 1016.3 - - - - - - - - -
28/09:30pm 24.9 SE 21 24 1016.5 - - - - - - - - -
28/09:00pm 25.0 SE 21 25 1016.5 - - - - - - - - -
28/08:30pm 24.8 SE 21 24 1016.5 - - - - - - - - -
28/08:00pm 24.9 SE 21 26 1016.4 - - - - - - - - -
28/07:30pm 24.8 SE 22 26 1015.9 - - - - - - - - -
28/07:00pm 24.7 SE 23 27 1015.7 - - - - - - - - -
28/06:30pm 24.8 SE 21 25 1015.6 - - - - - - - - -
28/06:00pm 24.7 SE 21 24 1015.4 - - - - - - - - -
28/05:30pm 24.6 SE 21 24 1015.1 - - - - - - - - -
28/05:00pm 24.6 SSE 20 23 1014.7 - - - - - - - - -
28/04:30pm 24.5 SSE 20 23 1014.5 - - - - - - - - -
28/04:00pm 24.4 SSE 21 24 1014.1 - - - - - - - - -
28/03:30pm 24.5 SSE 19 24 1013.9 - - - - - - - - -
28/03:00pm 24.7 SSE 19 22 1014.0 - - - - - - - - -
28/02:30pm 24.6 SSE 19 22 1014.0 - - - - - - - - -
28/02:00pm 24.6 SSE 20 25 1013.9 - - - - - - - - -
28/01:30pm 24.5 SSE 21 24 1013.9 - - - - - - - - -
28/01:00pm 24.4 SSE 22 25 1014.5 - - - - - - - - -
28/12:30pm 24.5 SSE 21 25 1015.0 - - - - - - - - -
28/12:00pm 24.4 SSE 22 26 1015.6 - - - - - - - - -
28/11:30am 24.4 SSE 20 23 1015.9 - - - - - - - - -
28/11:00am 24.6 SSE 21 25 1016.2 - - - - - - - - -
28/10:30am 24.6 SSE 21 25 1016.5 - - - - - - - - -
28/10:00am 24.7 SSE 20 23 1016.8 - - - - - - - - -
28/09:30am 24.7 SSE 18 21 1017.2 - - - - - - - - -
28/09:00am 25.0 SE 19 22 1017.4 - - - - - - - - -
28/08:30am 24.7 SE 19 22 1017.2 - - - - - - - - -
28/08:00am 24.7 SSE 17 20 1016.9 - - - - - - - - -
28/07:30am 24.6 SSE 16 19 1016.7 - - - - - - - - -
28/07:00am 24.6 SSE 16 19 1016.3 - - - - - - - - -
28/06:30am 24.4 SSE 16 18 1016.2 - - - - - - - - -
28/06:00am 24.7 SSE 15 17 1015.8 - - - - - - - - -
28/05:30am 24.3 SSE 18 20 1015.5 - - - - - - - - -
28/05:00am 24.5 SSE 17 19 1015.2 - - - - - - - - -
28/04:30am 24.8 SSE 15 18 1015.2 - - - - - - - - -
28/04:00am 24.5 SSE 17 20 1015.1 - - - - - - - - -
28/03:30am 24.3 SSE 15 17 1015.4 - - - - - - - - -
28/03:00am 24.1 SSE 14 17 1015.4 - - - - - - - - -
28/02:30am 23.7 SSE 12 14 1015.8 - - - - - - - - -
28/02:00am 24.1 SSE 14 16 1015.8 - - - - - - - - -
28/01:30am 24.1 SSE 17 20 1015.7 - - - - - - - - -
28/01:00am 23.8 SSE 14 16 1016.1 - - - - - - - - -
28/12:30am 24.0 SSE 14 16 1016.5 - - - - - - - - -
28/12:00am 23.8 SSE 13 16 1016.5 - - - - - - - - -
 
Date/Time
EST
Temp
°C
Wind Pressure Rain since
9am
mm
Weather Cloud Vis
km
Sea
Height
m
Swell
Dir  Spd
kts
Gust
kts
hPa Trend Height
m
Period
s
Dir
27/11:30pm 24.5 SSE 13 15 1016.8 - - - - - - - - -
27/11:00pm 24.8 SSE 12 14 1016.9 - - - - - - - - -
27/10:30pm 25.4 SSE 13 15 1017.0 - - - - - - - - -
27/10:00pm 25.4 SSE 12 15 1016.8 - - - - - - - - -
27/09:30pm 25.5 SSE 13 14 1016.8 - - - - - - - - -
27/09:00pm 25.5 SSE 12 15 1016.7 - - - - - - - - -
27/08:30pm 25.4 SSE 11 13 1016.6 - - - - - - - - -
27/08:00pm 25.6 SSE 13 15 1016.3 - - - - - - - - -
27/07:30pm 25.5 SSE 12 14 1016.1 - - - - - - - - -
27/07:00pm 25.5 SE 11 13 1015.8 - - - - - - - - -
27/06:30pm 25.6 SSE 11 13 1015.6 - - - - - - - - -
27/06:00pm 25.4 SE 12 13 1015.1 - - - - - - - - -
27/05:30pm 25.6 SE 12 14 1014.6 - - - - - - - - -
27/05:00pm 25.5 SE 13 14 1014.2 - - - - - - - - -
27/04:30pm 25.6 SE 13 15 1013.8 - - - - - - - - -
27/04:00pm 25.5 SE 13 15 1013.3 - - - - - - - - -
27/03:30pm 25.7 SE 13 16 1013.0 - - - - - - - - -
27/03:00pm 25.7 SE 14 16 1013.0 - - - - - - - - -
27/02:30pm 25.9 SE 12 15 1013.2 - - - - - - - - -
27/02:00pm 25.9 SE 13 15 1013.4 - - - - - - - - -
27/01:30pm 25.9 SE 13 15 1013.5 - - - - - - - - -
27/01:00pm 26.0 SE 13 14 1013.6 - - - - - - - - -
27/12:30pm 25.8 SE 12 14 1013.9 - - - - - - - - -
27/12:00pm 25.8 SE 13 15 1014.4 - - - - - - - - -
27/11:30am 25.9 SE 12 14 1014.8 - - - - - - - - -
27/11:00am 25.8 SE 13 15 1015.1 - - - - - - - - -
27/10:30am 25.8 SE 12 14 1015.4 - - - - - - - - -
27/10:00am 25.9 SE 13 15 1015.7 - - - - - - - - -
27/09:30am 26.0 ESE 13 15 1015.8 - - - - - - - - -
27/09:00am 25.9 ESE 13 15 1015.9 - - - - - - - - -
27/08:30am 25.9 ESE 13 14 1015.8 - - - - - - - - -
27/08:00am 25.8 ESE 14 15 1015.6 - - - - - - - - -

Other Formats:

Comma delimited format used in spreadsheet applications
http://www.bom.gov.au/fwo/IDQ60701/IDQ60701.94293.axf

JavaScript Object Notation format (JSON) in row-major order
http://www.bom.gov.au/fwo/IDQ60701/IDQ60701.94293.json